createdAt,value
2018-01-07T00:24:31.393Z,102131
2018-01-07T00:27:02.476Z,102120
2018-01-07T00:29:36.745Z,102121
2018-01-07T00:32:06.118Z,102118
2018-01-07T00:34:54.739Z,102129
2018-01-07T00:37:24.445Z,102130
2018-01-07T00:40:14.268Z,102140
2018-01-07T00:43:00.570Z,102140
2018-01-07T00:45:36.365Z,102142
2018-01-07T00:48:11.184Z,102146
2018-01-07T00:50:42.127Z,102151
2018-01-07T00:56:05.669Z,102166
2018-01-07T00:58:34.688Z,102169
2018-01-07T01:12:51.872Z,102186
2018-01-07T01:15:20.876Z,102196
2018-01-07T01:17:49.114Z,102197
2018-01-07T01:20:17.305Z,102196
2018-01-07T01:22:45.531Z,102202
2018-01-07T01:25:14.482Z,102203
2018-01-07T01:27:42.706Z,102210
2018-01-07T01:30:10.928Z,102215
2018-01-07T01:32:39.133Z,102219
2018-01-07T01:35:07.397Z,102220
2018-01-07T01:37:35.611Z,102225
2018-01-07T01:40:03.821Z,102235
2018-01-07T01:42:32.022Z,102239
2018-01-07T01:45:00.228Z,102242
2018-01-07T01:47:28.409Z,102247
2018-01-07T01:49:56.753Z,102244
2018-01-07T01:52:24.937Z,102254
2018-01-07T01:54:54.573Z,102251
2018-01-07T01:57:22.765Z,102254
2018-01-07T01:59:51.841Z,102259
2018-01-07T02:02:20.040Z,102252
2018-01-07T02:04:48.266Z,102265
2018-01-07T02:07:17.230Z,102264
2018-01-07T02:09:45.443Z,102268
2018-01-07T02:12:13.704Z,102272
2018-01-07T02:14:43.737Z,102273
2018-01-07T02:17:12.941Z,102270
2018-01-07T02:19:41.886Z,102273
2018-01-07T02:22:10.158Z,102268
2018-01-07T02:24:38.334Z,102279
2018-01-07T02:27:06.512Z,102278
2018-01-07T02:29:35.467Z,102283
2018-01-07T02:32:03.693Z,102278
2018-01-07T02:34:32.652Z,102295
2018-01-07T02:37:00.855Z,102286
2018-01-07T02:39:29.842Z,102296
2018-01-07T02:41:58.811Z,102301
2018-01-07T02:44:27.043Z,102300
2018-01-07T02:46:55.365Z,102301
2018-01-07T02:49:23.553Z,102321
2018-01-07T02:51:51.738Z,102314
2018-01-07T02:54:20.751Z,102319
2018-01-07T02:56:48.972Z,102324
2018-01-07T02:59:17.223Z,102329
2018-01-07T03:01:45.475Z,102332
2018-01-07T03:04:13.674Z,102330
2018-01-07T03:06:41.862Z,102333
2018-01-07T03:09:10.075Z,102335
2018-01-07T03:11:39.020Z,102337
2018-01-07T03:14:07.267Z,102334
2018-01-07T03:16:35.444Z,102335
2018-01-07T03:19:03.631Z,102345
2018-01-07T03:21:31.841Z,102353
2018-01-07T03:24:00.813Z,102354
2018-01-07T03:26:28.988Z,102364
2018-01-07T03:28:57.171Z,102369
2018-01-07T03:31:25.348Z,102366
2018-01-07T03:33:53.540Z,102376
2018-01-07T03:36:22.642Z,102378
2018-01-07T03:38:51.679Z,102392
2018-01-07T03:41:19.874Z,102392
2018-01-07T03:43:48.059Z,102400
2018-01-07T03:46:16.244Z,102398
2018-01-07T03:48:45.190Z,102398
2018-01-07T03:51:13.387Z,102401
2018-01-07T03:53:41.582Z,102405
2018-01-07T03:56:10.529Z,102414
2018-01-07T03:58:38.790Z,102418
2018-01-07T04:01:07.007Z,102434
2018-01-07T04:03:35.187Z,102433
2018-01-07T04:06:03.369Z,102430
2018-01-07T04:08:31.542Z,102439
2018-01-07T04:10:59.783Z,102447
2018-01-07T04:13:27.987Z,102459
2018-01-07T04:15:56.187Z,102456
2018-01-07T04:18:24.389Z,102454
2018-01-07T04:20:52.615Z,102462
2018-01-07T04:23:20.927Z,102464
2018-01-07T04:25:49.258Z,102466
2018-01-07T04:28:17.462Z,102472
2018-01-07T04:30:46.427Z,102477
2018-01-07T04:33:14.620Z,102476
2018-01-07T04:35:43.656Z,102478
2018-01-07T04:38:11.841Z,102476
2018-01-07T04:40:40.031Z,102492
2018-01-07T04:43:08.215Z,102496
2018-01-07T04:45:36.395Z,102502
2018-01-07T04:48:04.599Z,102503
2018-01-07T04:50:32.815Z,102502
2018-01-07T04:53:01.101Z,102515
2018-01-07T04:55:29.280Z,102516
2018-01-07T04:57:57.475Z,102509
2018-01-07T05:00:26.415Z,102516
2018-01-07T05:02:54.696Z,102519
2018-01-07T05:05:22.886Z,102522
2018-01-07T05:07:51.095Z,102528
2018-01-07T05:10:20.141Z,102532
2018-01-07T05:12:48.324Z,102541
2018-01-07T05:15:16.553Z,102550
2018-01-07T05:17:44.746Z,102555
2018-01-07T05:20:12.937Z,102559
2018-01-07T05:22:41.119Z,102554
2018-01-07T05:25:09.369Z,102566
2018-01-07T05:27:37.628Z,102564
2018-01-07T05:30:05.818Z,102552
2018-01-07T05:32:34.042Z,102568
2018-01-07T05:35:02.230Z,102566
2018-01-07T05:37:31.191Z,102567
2018-01-07T05:39:59.436Z,102578
2018-01-07T05:42:27.617Z,102586
2018-01-07T05:44:55.833Z,102593
2018-01-07T05:47:24.128Z,102601
2018-01-07T05:49:53.113Z,102597
2018-01-07T05:52:22.240Z,102609
2018-01-07T05:54:50.508Z,102615
2018-01-07T05:57:18.738Z,102618
2018-01-07T05:59:47.080Z,102623
2018-01-07T06:02:16.048Z,102629
2018-01-07T06:04:44.252Z,102641
2018-01-07T06:07:12.555Z,102640
2018-01-07T06:09:40.766Z,102648
2018-01-07T06:12:08.977Z,102651
2018-01-07T06:14:37.164Z,102657
2018-01-07T06:17:05.357Z,102659
2018-01-07T06:19:33.606Z,102668
2018-01-07T06:22:01.812Z,102665
2018-01-07T06:24:30.766Z,102678
2018-01-07T06:26:58.949Z,102676
2018-01-07T06:29:27.122Z,102682
2018-01-07T06:31:55.326Z,102690
2018-01-07T06:34:24.386Z,102702
2018-01-07T06:36:52.835Z,102693
2018-01-07T06:39:21.056Z,102704
2018-01-07T06:41:49.419Z,102709
2018-01-07T06:44:17.621Z,102716
2018-01-07T06:46:45.955Z,102721
2018-01-07T06:49:14.155Z,102726
2018-01-07T06:51:42.348Z,102730
2018-01-07T06:54:10.562Z,102737
2018-01-07T06:56:38.801Z,102753
2018-01-07T06:59:07.777Z,102752
2018-01-07T07:01:35.988Z,102753
2018-01-07T07:04:04.176Z,102757
2018-01-07T07:06:32.378Z,102768
2018-01-07T07:09:00.591Z,102776
2018-01-07T07:11:29.552Z,102770
2018-01-07T07:13:57.763Z,102775
2018-01-07T07:16:26.733Z,102779
2018-01-07T07:18:55.080Z,102785
2018-01-07T07:21:23.328Z,102799
2018-01-07T07:23:51.517Z,102787
2018-01-07T07:26:19.717Z,102802
2018-01-07T07:28:47.994Z,102806
2018-01-07T07:31:16.257Z,102812
2018-01-07T07:33:44.478Z,102813
2018-01-07T07:36:12.678Z,102807
2018-01-07T07:38:40.923Z,102817
2018-01-07T07:41:09.873Z,102824
2018-01-07T07:43:38.095Z,102827
2018-01-07T07:46:06.299Z,102840
2018-01-07T07:48:34.490Z,102843
2018-01-07T07:51:02.685Z,102844
2018-01-07T07:53:30.901Z,102852
2018-01-07T07:55:59.087Z,102859
2018-01-07T07:58:27.333Z,102865
2018-01-07T08:00:56.298Z,102866
2018-01-07T08:03:24.587Z,102865
2018-01-07T08:05:53.569Z,102875
2018-01-07T08:08:21.797Z,102874
2018-01-07T08:10:50.750Z,102880
2018-01-07T08:13:18.983Z,102888
2018-01-07T08:15:47.161Z,102883
2018-01-07T08:18:15.409Z,102888
2018-01-07T08:20:44.425Z,102897
2018-01-07T08:23:12.633Z,102901
2018-01-07T08:25:40.849Z,102891
2018-01-07T08:28:09.060Z,102888
2018-01-07T08:30:37.278Z,102902
2018-01-07T08:33:05.499Z,102913
2018-01-07T08:35:33.751Z,102905
2018-01-07T08:38:02.832Z,102906
2018-01-07T08:40:31.024Z,102915
2018-01-07T08:42:59.239Z,102924
2018-01-07T08:45:27.439Z,102913
2018-01-07T08:47:55.680Z,102928
2018-01-07T08:50:23.920Z,102924
2018-01-07T08:52:52.144Z,102934
2018-01-07T08:55:21.129Z,102941
2018-01-07T08:57:50.156Z,102952
2018-01-07T09:00:18.394Z,102965
2018-01-07T09:02:47.447Z,102971
2018-01-07T09:05:15.636Z,102972
2018-01-07T09:07:43.827Z,102984
2018-01-07T09:10:12.053Z,102983
2018-01-07T09:12:40.245Z,102989
2018-01-07T09:15:08.494Z,102995
2018-01-07T09:17:36.718Z,102997
2018-01-07T09:20:05.021Z,103002
2018-01-07T09:22:34.126Z,103001
2018-01-07T09:25:02.387Z,103007
2018-01-07T09:27:31.349Z,103013
2018-01-07T09:29:59.554Z,103005
2018-01-07T09:32:28.528Z,103013
2018-01-07T09:34:56.753Z,103024
2018-01-07T09:37:24.988Z,103023
2018-01-07T09:39:54.633Z,103029
2018-01-07T09:42:22.849Z,103029
2018-01-07T09:44:51.109Z,103036
2018-01-07T09:47:19.350Z,103040
2018-01-07T09:49:47.583Z,103047
2018-01-07T09:52:16.927Z,103050
2018-01-07T09:57:19.522Z,103063
2018-01-07T09:59:47.719Z,103068
2018-01-07T10:02:15.972Z,103059
2018-01-07T10:04:44.172Z,103052
2018-01-07T10:07:12.379Z,103061
2018-01-07T10:09:41.362Z,103070
2018-01-07T10:12:10.408Z,103070
2018-01-07T10:14:38.641Z,103078
2018-01-07T10:17:07.683Z,103079
2018-01-07T10:19:35.908Z,103073
2018-01-07T10:22:06.265Z,103073
2018-01-07T10:24:35.210Z,103076
2018-01-07T10:27:04.343Z,103077
2018-01-07T10:29:32.603Z,103081
2018-01-07T10:32:00.887Z,103073
2018-01-07T10:34:29.175Z,103084
2018-01-07T10:36:57.574Z,103084
2018-01-07T10:39:25.905Z,103086
2018-01-07T10:41:55.110Z,103086
2018-01-07T10:44:23.630Z,103082
2018-01-07T10:46:51.951Z,103089
2018-01-07T10:49:20.304Z,103088
2018-01-07T10:51:48.564Z,103089
2018-01-07T10:54:16.840Z,103089
2018-01-07T10:56:45.093Z,103082
2018-01-07T10:59:13.494Z,103092
2018-01-07T11:01:47.534Z,103088
2018-01-07T11:04:16.884Z,103086
2018-01-07T11:06:45.265Z,103089
2018-01-07T11:09:13.574Z,103088
2018-01-07T11:11:42.632Z,103088
2018-01-07T11:14:12.499Z,103085
2018-01-07T11:16:40.791Z,103092
2018-01-07T11:19:09.171Z,103100
2018-01-07T11:21:37.469Z,103091
2018-01-07T11:27:23.504Z,103098
2018-01-07T11:30:04.931Z,103094
2018-01-07T11:32:33.325Z,103081
2018-01-07T11:35:01.572Z,103082
2018-01-07T11:37:29.811Z,103088
2018-01-07T11:39:58.167Z,103082
2018-01-07T11:42:28.611Z,103073
2018-01-07T11:44:57.119Z,103064
2018-01-07T11:47:32.796Z,103071
2018-01-07T11:50:01.117Z,103068
2018-01-07T11:52:29.390Z,103070
2018-01-07T11:55:03.886Z,103076
2018-01-07T11:57:36.568Z,103082
2018-01-07T12:00:04.949Z,103078
2018-01-07T12:02:33.274Z,103076
2018-01-07T12:05:02.436Z,103073
2018-01-07T12:07:30.690Z,103076
2018-01-07T12:09:58.934Z,103070
2018-01-07T12:12:27.292Z,103068
2018-01-07T12:14:55.549Z,103066
2018-01-07T12:17:25.120Z,103060
2018-01-07T12:19:53.428Z,103071
2018-01-07T12:25:24.739Z,103072
2018-01-07T12:27:56.292Z,103074
2018-01-07T12:44:58.652Z,103080
2018-01-07T12:47:31.725Z,103075
2018-01-07T12:50:00.342Z,103076
2018-01-07T12:53:02.171Z,103086
2018-01-07T12:55:32.494Z,103081
2018-01-07T12:58:01.518Z,103084
2018-01-07T13:00:32.083Z,103084
2018-01-07T13:06:14.665Z,103080
2018-01-07T13:08:43.849Z,103084
2018-01-07T13:11:14.071Z,103090
2018-01-07T13:13:42.562Z,103075
2018-01-07T13:16:10.933Z,103077
2018-01-07T13:18:39.245Z,103082
2018-01-07T13:21:08.306Z,103084
2018-01-07T13:23:36.753Z,103080
2018-01-07T13:26:05.105Z,103080
2018-01-07T13:28:33.435Z,103086
2018-01-07T13:31:03.503Z,103088
2018-01-07T13:33:32.117Z,103084
2018-01-07T13:36:00.622Z,103088
2018-01-07T13:38:28.868Z,103093
2018-01-07T13:40:58.035Z,103096
2018-01-07T13:43:28.635Z,103089
2018-01-07T13:45:59.031Z,103096
2018-01-07T13:48:28.071Z,103093
2018-01-07T13:50:56.460Z,103103
2018-01-07T13:53:31.634Z,103103
2018-01-07T13:56:00.125Z,103102
2018-01-07T13:58:31.842Z,103105
2018-01-07T14:01:11.106Z,103105
2018-01-07T14:03:39.499Z,103105
2018-01-07T14:06:07.942Z,103109
2018-01-07T14:08:41.366Z,103104
2018-01-07T14:11:09.699Z,103107
2018-01-07T14:16:58.056Z,103121
2018-01-07T14:19:26.281Z,103118
2018-01-07T14:21:54.478Z,103117
2018-01-07T14:24:22.723Z,103124
2018-01-07T14:26:50.975Z,103122
2018-01-07T14:29:19.195Z,103126
2018-01-07T14:31:47.405Z,103123
2018-01-07T14:34:15.598Z,103133
2018-01-07T14:36:43.849Z,103129
2018-01-07T14:39:13.947Z,103134
2018-01-07T14:42:20.103Z,103131
2018-01-07T14:44:56.293Z,103133
2018-01-07T14:47:27.970Z,103144
2018-01-07T14:49:59.244Z,103148
2018-01-07T14:52:41.125Z,103145
2018-01-07T14:55:18.669Z,103148
2018-01-07T14:57:54.676Z,103144
2018-01-07T15:00:35.144Z,103146
2018-01-07T15:03:26.853Z,103155
2018-01-07T15:05:55.335Z,103168
2018-01-07T15:08:23.652Z,103169
2018-01-07T15:10:51.992Z,103164
2018-01-07T15:13:20.308Z,103170
2018-01-07T15:15:48.653Z,103163
2018-01-07T15:18:17.021Z,103158
2018-01-07T15:20:45.612Z,103165
2018-01-07T15:23:13.985Z,103163
2018-01-07T15:25:42.344Z,103163
2018-01-07T15:28:11.236Z,103161
2018-01-07T15:30:39.776Z,103161
2018-01-07T15:33:09.251Z,103153
2018-01-07T15:35:37.629Z,103155
2018-01-07T15:38:06.160Z,103147
2018-01-07T15:40:34.590Z,103153
2018-01-07T15:43:03.632Z,103155
2018-01-07T15:45:32.024Z,103159
2018-01-07T15:48:01.401Z,103160
2018-01-07T15:50:30.897Z,103164
2018-01-07T15:52:59.371Z,103157
2018-01-07T15:55:28.022Z,103158
2018-01-07T15:57:56.476Z,103159
2018-01-07T16:00:24.870Z,103158
2018-01-07T16:02:53.176Z,103154
2018-01-07T16:05:21.644Z,103154
2018-01-07T16:10:24.626Z,103161
2018-01-07T16:12:53.772Z,103163
2018-01-07T16:15:22.966Z,103177
2018-01-07T16:17:51.293Z,103172
2018-01-07T16:20:19.592Z,103168
2018-01-07T16:22:48.006Z,103170
2018-01-07T16:25:16.334Z,103177
2018-01-07T16:27:45.210Z,103169
2018-01-07T16:30:14.247Z,103178
2018-01-07T16:32:42.575Z,103182
2018-01-07T16:35:10.905Z,103185
2018-01-07T16:37:39.166Z,103187
2018-01-07T16:40:07.492Z,103183
2018-01-07T16:42:36.476Z,103191
2018-01-07T16:45:04.700Z,103184
2018-01-07T16:47:32.972Z,103191
2018-01-07T16:50:01.260Z,103194
2018-01-07T16:52:32.704Z,103198
2018-01-07T16:55:02.372Z,103200
2018-01-07T16:57:30.684Z,103210
2018-01-07T16:59:58.993Z,103206
2018-01-07T17:02:27.230Z,103206
2018-01-07T17:04:55.437Z,103210
2018-01-07T17:07:23.685Z,103206
2018-01-07T17:09:51.960Z,103213
2018-01-07T17:12:20.187Z,103222
2018-01-07T17:14:48.415Z,103228
2018-01-07T17:17:16.615Z,103234
2018-01-07T17:19:44.813Z,103226
2018-01-07T17:22:16.499Z,103224
2018-01-07T17:25:16.862Z,103225
2018-01-07T17:27:50.561Z,103232
2018-01-07T17:30:26.453Z,103235
2018-01-07T17:32:54.862Z,103245
2018-01-07T17:35:24.153Z,103235
2018-01-07T17:37:52.645Z,103243
2018-01-07T17:40:21.680Z,103242
2018-01-07T17:42:50.162Z,103247
2018-01-07T17:45:18.399Z,103248
2018-01-07T17:47:46.640Z,103254
2018-01-07T17:50:15.688Z,103255
2018-01-07T17:52:43.969Z,103256
2018-01-07T17:55:12.113Z,103257
2018-01-07T17:57:40.369Z,103263
2018-01-07T18:00:08.619Z,103265
2018-01-07T18:02:36.857Z,103261
2018-01-07T18:05:05.061Z,103267
2018-01-07T18:07:33.278Z,103272
2018-01-07T18:10:01.477Z,103270
2018-01-07T18:12:29.728Z,103259
2018-01-07T18:14:58.070Z,103255
2018-01-07T18:17:26.333Z,103267
2018-01-07T18:19:54.532Z,103261
2018-01-07T18:22:22.734Z,103263
2018-01-07T18:24:50.952Z,103265
2018-01-07T18:27:19.173Z,103274
2018-01-07T18:29:47.392Z,103279
2018-01-07T18:32:15.604Z,103277
2018-01-07T18:34:44.571Z,103275
2018-01-07T18:37:12.751Z,103275
2018-01-07T18:39:41.043Z,103272
2018-01-07T18:42:09.256Z,103281
2018-01-07T18:44:37.500Z,103282
2018-01-07T18:47:06.352Z,103287
2018-01-07T18:49:34.656Z,103287
2018-01-07T18:52:03.691Z,103284
2018-01-07T18:54:31.871Z,103285
2018-01-07T18:57:00.125Z,103289
2018-01-07T18:59:28.351Z,103277
2018-01-07T19:01:56.867Z,103278
2018-01-07T19:04:25.830Z,103285
2018-01-07T19:06:54.060Z,103287
2018-01-07T19:09:22.267Z,103286
2018-01-07T19:11:50.613Z,103297
2018-01-07T19:14:18.966Z,103295
2018-01-07T19:16:47.251Z,103308
2018-01-07T19:19:16.749Z,103308
2018-01-07T19:21:44.989Z,103300
2018-01-07T19:24:14.011Z,103297
2018-01-07T19:26:42.278Z,103300
2018-01-07T19:29:10.576Z,103295
2018-01-07T19:31:39.469Z,103293
2018-01-07T19:34:07.736Z,103301
2018-01-07T19:36:36.028Z,103297
2018-01-07T19:39:04.227Z,103305
2018-01-07T19:41:32.586Z,103305
2018-01-07T19:44:00.800Z,103305
2018-01-07T19:46:29.106Z,103309
2018-01-07T19:48:57.344Z,103311
2018-01-07T19:51:25.593Z,103309
2018-01-07T19:53:53.915Z,103311
2018-01-07T19:56:22.783Z,103316
2018-01-07T19:58:51.076Z,103305
2018-01-07T20:01:19.346Z,103302
2018-01-07T20:03:47.644Z,103310
2018-01-07T20:06:15.872Z,103314
2018-01-07T20:08:45.172Z,103307
2018-01-07T20:11:13.545Z,103306
2018-01-07T20:13:41.897Z,103316
2018-01-07T20:16:10.235Z,103308
2018-01-07T20:18:38.624Z,103317
2018-01-07T20:21:07.013Z,103325
2018-01-07T20:23:35.326Z,103313
2018-01-07T20:26:03.595Z,103324
2018-01-07T20:28:31.902Z,103325
2018-01-07T20:31:01.246Z,103329
2018-01-07T20:33:29.631Z,103340
2018-01-07T20:35:57.953Z,103334
2018-01-07T20:38:27.077Z,103334
2018-01-07T20:40:55.564Z,103335
2018-01-07T20:43:34.528Z,103339
2018-01-07T20:46:10.333Z,103339
2018-01-07T20:48:49.193Z,103334
2018-01-07T20:54:12.735Z,103328
2018-01-07T20:56:44.705Z,103330
2018-01-07T21:02:03.135Z,103323
2018-01-07T21:07:55.711Z,103319
2018-01-07T21:11:01.794Z,103334
2018-01-07T21:16:35.116Z,103329
2018-01-07T21:19:21.240Z,103339
2018-01-07T21:24:35.904Z,103337
2018-01-07T21:27:04.893Z,103340
2018-01-07T21:29:48.550Z,103342
2018-01-07T21:32:32.267Z,103344
2018-01-07T21:35:02.924Z,103345
2018-01-07T21:37:31.465Z,103347
2018-01-07T21:39:59.824Z,103343
2018-01-07T21:42:28.111Z,103348
2018-01-07T21:44:56.636Z,103341
2018-01-07T21:47:25.091Z,103340
2018-01-07T21:49:53.850Z,103346
2018-01-07T21:52:22.156Z,103334
2018-01-07T21:54:50.432Z,103341
2018-01-07T21:57:18.662Z,103335
2018-01-07T22:00:04.605Z,103346
2018-01-07T22:02:50.536Z,103341
2018-01-07T22:05:19.498Z,103340
2018-01-07T22:07:47.743Z,103338
2018-01-07T22:10:16.312Z,103330
2018-01-07T22:12:44.546Z,103334
2018-01-07T22:15:13.561Z,103335
2018-01-07T22:17:41.789Z,103333
2018-01-07T22:20:26.276Z,103343
2018-01-07T22:22:59.226Z,103343
2018-01-07T22:25:40.394Z,103349
2018-01-07T22:28:09.163Z,103345
2018-01-07T22:30:39.934Z,103349
2018-01-07T22:33:08.179Z,103349
2018-01-07T22:35:39.985Z,103348
2018-01-07T22:38:09.013Z,103353
2018-01-07T22:40:37.379Z,103363
2018-01-07T22:43:05.707Z,103345
2018-01-07T22:45:33.992Z,103350
2018-01-07T22:48:07.638Z,103340
2018-01-07T22:50:35.967Z,103346
2018-01-07T22:53:04.171Z,103349
2018-01-07T22:55:33.708Z,103349
2018-01-07T22:58:01.931Z,103346
2018-01-07T23:00:30.144Z,103345
2018-01-07T23:02:58.335Z,103339
2018-01-07T23:05:26.526Z,103342
2018-01-07T23:07:54.718Z,103336
2018-01-07T23:10:22.901Z,103337
2018-01-07T23:12:51.134Z,103336
2018-01-07T23:15:19.396Z,103332
2018-01-07T23:17:47.683Z,103338
2018-01-07T23:20:15.906Z,103331
2018-01-07T23:22:45.186Z,103331
2018-01-07T23:25:26.279Z,103328
2018-01-07T23:27:55.789Z,103330
2018-01-07T23:30:28.124Z,103339
2018-01-07T23:35:45.621Z,103341
2018-01-07T23:51:13.932Z,103360
